Time;durP1;ratioP1;P1;durP2;ratioP2;P2;SDS_P1;SDS_P2;PMS_P1;PMS_P2;Temp;Humidity;BMP_temperature;BMP_pressure;BME280_temperature;BME280_humidity;BME280_pressure;Samples;Min_cycle;Max_cycle;Signal;HPM_P1;HPM_P2
2023/07/15 00:00:49;;;;;;;0.73;0.73;;;18.00;99.90;;;;;;4970071;28;20803;-74
2023/07/15 00:03:16;;;;;;;0.57;0.57;;;18.00;99.90;;;;;;4964180;28;20039;-74
2023/07/15 00:05:41;;;;;;;1.05;1.05;;;18.00;99.90;;;;;;4970010;28;20046;-74
2023/07/15 00:08:08;;;;;;;0.43;0.43;;;18.30;99.90;;;;;;4954109;28;20046;-74
2023/07/15 00:10:36;;;;;;;0.60;0.60;;;18.00;99.90;;;;;;4970866;28;20039;-74
2023/07/15 00:13:02;;;;;;;0.40;0.40;;;18.10;99.90;;;;;;4970382;28;20504;-74
2023/07/15 00:15:28;;;;;;;0.40;0.40;;;18.20;99.90;;;;;;4971332;28;20043;-74
2023/07/15 00:17:54;;;;;;;0.68;0.50;;;18.20;99.90;;;;;;4968814;28;20515;-74
2023/07/15 00:20:20;;;;;;;0.80;0.80;;;18.20;99.90;;;;;;4962520;28;20047;-74
2023/07/15 00:22:47;;;;;;;0.80;0.63;;;17.90;99.90;;;;;;4954042;28;20051;-74
2023/07/15 00:25:20;;;;;;;0.40;0.40;;;18.00;99.90;;;;;;4956293;28;20058;-74
2023/07/15 00:27:46;;;;;;;0.70;0.70;;;17.90;99.90;;;;;;4950725;28;20637;-74
2023/07/15 00:30:17;;;;;;;0.95;0.95;;;18.10;99.90;;;;;;4950774;28;20055;-74
2023/07/15 00:32:45;;;;;;;0.50;0.50;;;17.90;99.90;;;;;;4950081;28;20139;-74
2023/07/15 00:35:18;;;;;;;0.40;0.40;;;17.80;99.90;;;;;;4950215;28;20507;-73
2023/07/15 00:37:44;;;;;;;0.30;0.30;;;18.00;99.90;;;;;;4945421;28;20043;-73
2023/07/15 00:40:11;;;;;;;0.35;0.35;;;17.70;99.90;;;;;;4951456;28;20050;-74
2023/07/15 00:43:18;;;;;;;0.43;0.43;;;17.70;99.90;;;;;;4951334;28;20050;-74
2023/07/15 00:45:43;;;;;;;0.50;0.50;;;17.90;99.90;;;;;;4933952;28;20070;-74
2023/07/15 00:48:13;;;;;;;0.60;0.60;;;17.90;99.90;;;;;;4949923;28;20051;-74
2023/07/15 00:50:42;;;;;;;0.40;0.40;;;17.70;99.90;;;;;;4947520;28;20082;-74
2023/07/15 00:53:12;;;;;;;0.68;0.68;;;17.70;99.90;;;;;;4941922;28;20098;-73
2023/07/15 00:55:38;;;;;;;0.30;0.30;;;17.80;99.90;;;;;;4949154;28;20054;-74
2023/07/15 00:58:04;;;;;;;1.05;0.73;;;17.90;99.90;;;;;;4950935;28;20039;-74
2023/07/15 01:00:31;;;;;;;0.65;0.65;;;17.70;99.90;;;;;;4951948;28;20046;-73
2023/07/15 01:02:57;;;;;;;0.40;0.40;;;17.80;99.90;;;;;;4951869;28;20142;-73
2023/07/15 01:05:22;;;;;;;0.70;0.70;;;17.60;99.90;;;;;;4951659;28;20130;-74
2023/07/15 01:07:48;;;;;;;0.65;0.65;;;17.70;99.90;;;;;;4951686;28;20081;-74
2023/07/15 01:10:14;;;;;;;0.50;0.50;;;17.70;99.90;;;;;;4946615;28;20043;-73
2023/07/15 01:12:39;;;;;;;0.60;0.60;;;17.60;99.90;;;;;;4948497;28;20098;-73
2023/07/15 01:15:06;;;;;;;0.85;0.82;;;17.70;99.90;;;;;;4944895;28;20063;-73
2023/07/15 01:17:32;;;;;;;1.10;1.05;;;17.80;99.90;;;;;;4951469;28;20106;-73
2023/07/15 01:19:58;;;;;;;0.63;0.63;;;17.60;99.90;;;;;;4956598;28;20047;-74
2023/07/15 01:22:25;;;;;;;1.10;1.08;;;17.90;99.90;;;;;;4951642;28;20034;-74
2023/07/15 01:24:51;;;;;;;0.90;0.90;;;17.50;99.90;;;;;;4963505;28;20055;-74
2023/07/15 01:27:18;;;;;;;0.88;0.88;;;17.70;99.90;;;;;;4970651;28;23733;-74
2023/07/15 01:29:44;;;;;;;0.60;0.60;;;17.70;99.90;;;;;;4949995;28;20054;-74
2023/07/15 01:32:09;;;;;;;0.50;0.50;;;17.90;99.90;;;;;;4969885;28;20038;-74
2023/07/15 01:34:36;;;;;;;0.55;0.55;;;18.00;99.90;;;;;;4965091;28;20097;-74
2023/07/15 01:37:02;;;;;;;0.52;0.52;;;18.00;99.90;;;;;;4962418;28;20130;-74
2023/07/15 01:39:27;;;;;;;1.15;0.50;;;17.80;99.90;;;;;;4936348;28;20121;-74
2023/07/15 01:41:55;;;;;;;0.60;0.60;;;18.00;99.90;;;;;;4936448;28;20047;-74
2023/07/15 01:44:22;;;;;;;0.57;0.57;;;18.20;99.90;;;;;;4949872;28;20050;-74
2023/07/15 01:46:47;;;;;;;0.70;0.70;;;17.90;99.90;;;;;;4951826;28;20760;-74
2023/07/15 01:49:13;;;;;;;0.75;0.75;;;18.00;99.90;;;;;;4965769;28;20035;-74
2023/07/15 01:51:39;;;;;;;1.15;1.08;;;18.10;99.90;;;;;;4963514;28;20047;-74
2023/07/15 01:54:05;;;;;;;0.70;0.70;;;18.10;99.90;;;;;;4966707;28;20782;-74
2023/07/15 01:56:30;;;;;;;1.00;0.98;;;18.40;99.90;;;;;;4965966;28;20031;-74
2023/07/15 01:58:56;;;;;;;0.50;0.50;;;18.40;99.90;;;;;;4968101;28;20125;-74
2023/07/15 02:01:22;;;;;;;0.32;0.32;;;18.40;99.90;;;;;;4968148;28;20122;-74
2023/07/15 02:03:48;;;;;;;0.77;0.77;;;18.20;99.90;;;;;;4969053;28;20109;-74
2023/07/15 02:06:14;;;;;;;0.85;0.85;;;18.40;99.90;;;;;;4965357;28;20050;-74
2023/07/15 02:08:40;;;;;;;0.50;0.50;;;18.40;99.90;;;;;;4966660;28;20098;-74
2023/07/15 02:11:06;;;;;;;0.52;0.52;;;18.30;99.90;;;;;;4964225;28;20042;-74
2023/07/15 02:13:31;;;;;;;0.55;0.55;;;18.40;99.90;;;;;;4962855;28;20661;-73
2023/07/15 02:15:57;;;;;;;0.40;0.40;;;18.40;99.90;;;;;;4965272;28;20765;-73
2023/07/15 02:18:25;;;;;;;0.60;0.60;;;18.60;99.90;;;;;;4965160;28;20043;-73
2023/07/15 02:20:51;;;;;;;0.52;0.52;;;18.60;99.90;;;;;;4952022;28;20396;-74
2023/07/15 02:23:17;;;;;;;0.60;0.60;;;18.30;99.90;;;;;;4948585;28;20365;-73
2023/07/15 02:25:42;;;;;;;0.52;0.52;;;18.30;99.90;;;;;;4968473;28;20097;-73
2023/07/15 02:28:08;;;;;;;0.90;0.90;;;18.30;99.90;;;;;;4967091;28;20054;-73
2023/07/15 02:30:35;;;;;;;3.35;1.13;;;18.20;99.90;;;;;;4951547;28;20050;-73
2023/07/15 02:33:01;;;;;;;0.80;0.80;;;18.20;99.90;;;;;;4965285;28;20729;-73
2023/07/15 02:35:27;;;;;;;0.50;0.50;;;18.40;99.90;;;;;;4965852;28;20039;-73
2023/07/15 02:37:55;;;;;;;0.45;0.45;;;18.30;99.90;;;;;;4965411;28;20859;-73
2023/07/15 02:40:20;;;;;;;0.57;0.57;;;18.10;99.90;;;;;;4968695;28;20050;-74
2023/07/15 02:42:46;;;;;;;0.85;0.85;;;18.20;99.90;;;;;;4966328;28;20043;-74
2023/07/15 02:45:15;;;;;;;0.88;0.88;;;18.40;99.90;;;;;;4966571;28;20086;-74
2023/07/15 02:47:40;;;;;;;0.75;0.75;;;18.30;99.90;;;;;;4968670;28;20492;-73
2023/07/15 02:50:08;;;;;;;0.63;0.63;;;18.50;99.90;;;;;;4967539;28;20047;-74
2023/07/15 02:52:35;;;;;;;1.95;0.80;;;18.60;99.90;;;;;;4966648;28;20054;-73
2023/07/15 02:55:04;;;;;;;1.10;1.10;;;18.60;99.90;;;;;;4951818;28;20053;-73
2023/07/15 02:57:31;;;;;;;1.05;0.98;;;18.50;99.90;;;;;;4945802;28;20105;-74
2023/07/15 02:59:57;;;;;;;0.85;0.85;;;18.60;99.90;;;;;;4969358;28;20522;-74
2023/07/15 03:02:23;;;;;;;1.15;1.10;;;18.70;99.90;;;;;;4969702;28;20043;-73
2023/07/15 03:04:50;;;;;;;0.70;0.70;;;18.90;99.90;;;;;;4969054;28;20054;-73
2023/07/15 03:07:16;;;;;;;0.70;0.70;;;18.70;99.90;;;;;;4960230;28;20059;-74
2023/07/15 03:09:43;;;;;;;1.95;0.98;;;18.80;99.90;;;;;;4966880;28;20062;-74
2023/07/15 03:12:10;;;;;;;1.27;1.27;;;18.80;99.90;;;;;;4968906;28;20121;-73
2023/07/15 03:14:36;;;;;;;0.60;0.60;;;18.80;99.90;;;;;;4969479;28;20518;-73
2023/07/15 03:17:02;;;;;;;0.82;0.60;;;18.70;99.90;;;;;;4969965;28;20047;-73
2023/07/15 03:19:30;;;;;;;0.60;0.60;;;18.70;99.90;;;;;;4965476;28;20059;-74
2023/07/15 03:21:56;;;;;;;3.20;1.23;;;18.80;99.90;;;;;;4966801;28;20125;-74
2023/07/15 03:24:24;;;;;;;0.85;0.85;;;18.60;99.90;;;;;;4965375;28;20051;-73
2023/07/15 03:26:50;;;;;;;0.60;0.60;;;18.60;99.90;;;;;;4961853;28;20135;-73
2023/07/15 03:29:16;;;;;;;1.38;0.82;;;18.80;99.90;;;;;;4967766;28;20618;-73
2023/07/15 03:31:42;;;;;;;2.72;1.85;;;18.80;99.90;;;;;;4967274;28;20135;-74
2023/07/15 03:34:07;;;;;;;1.08;0.60;;;18.70;99.90;;;;;;4955557;28;20053;-73
2023/07/15 03:36:33;;;;;;;0.40;0.40;;;18.70;99.90;;;;;;4968727;28;20047;-73
2023/07/15 03:38:59;;;;;;;0.75;0.75;;;18.60;99.90;;;;;;4966850;28;20424;-73
2023/07/15 03:41:24;;;;;;;0.35;0.35;;;18.70;99.90;;;;;;4972637;28;20043;-73
2023/07/15 03:43:50;;;;;;;0.73;0.73;;;18.70;99.90;;;;;;4948546;28;20051;-73
2023/07/15 03:46:15;;;;;;;0.68;0.68;;;18.60;99.90;;;;;;4935330;28;20054;-73
2023/07/15 03:48:41;;;;;;;0.40;0.40;;;18.80;99.90;;;;;;4954578;28;20090;-73
2023/07/15 03:51:07;;;;;;;0.77;0.77;;;18.60;99.90;;;;;;4960590;28;20051;-73
2023/07/15 03:53:32;;;;;;;0.43;0.43;;;18.60;99.90;;;;;;4965902;28;20046;-73
2023/07/15 03:55:58;;;;;;;0.40;0.40;;;18.60;99.90;;;;;;4954802;28;20047;-73
2023/07/15 03:58:24;;;;;;;0.40;0.40;;;18.70;99.90;;;;;;4948753;28;20038;-73
2023/07/15 04:00:50;;;;;;;0.85;0.85;;;18.60;99.90;;;;;;4954645;28;20066;-74
2023/07/15 04:03:15;;;;;;;0.50;0.50;;;18.70;99.90;;;;;;4954767;28;20499;-74
2023/07/15 04:05:41;;;;;;;1.08;0.63;;;18.80;99.90;;;;;;4974395;28;20038;-74
2023/07/15 04:08:07;;;;;;;0.65;0.65;;;18.70;99.90;;;;;;4971897;28;20047;-74
2023/07/15 04:10:32;;;;;;;0.68;0.68;;;18.80;99.90;;;;;;4953792;28;20051;-74
2023/07/15 04:12:58;;;;;;;0.65;0.65;;;18.60;99.90;;;;;;4940831;28;20047;-74
2023/07/15 04:15:23;;;;;;;0.60;0.60;;;18.80;99.90;;;;;;4939966;28;20149;-74
2023/07/15 04:17:49;;;;;;;0.75;0.63;;;18.80;99.90;;;;;;4950661;28;20535;-74
2023/07/15 04:20:17;;;;;;;0.57;0.57;;;18.60;99.90;;;;;;4964316;28;20066;-74
2023/07/15 04:22:43;;;;;;;0.40;0.40;;;18.70;99.90;;;;;;4954190;28;20473;-74
2023/07/15 04:25:11;;;;;;;1.02;1.02;;;18.80;99.90;;;;;;4948956;28;20057;-74
2023/07/15 04:27:41;;;;;;;2.17;0.63;;;18.90;99.90;;;;;;4949229;28;20509;-74
2023/07/15 04:30:11;;;;;;;0.43;0.43;;;18.90;99.90;;;;;;4971604;28;20047;-74
2023/07/15 04:32:36;;;;;;;0.50;0.50;;;18.80;99.90;;;;;;4963969;28;20460;-74
2023/07/15 04:35:02;;;;;;;0.47;0.47;;;18.90;99.90;;;;;;4944916;28;20085;-74
2023/07/15 04:37:29;;;;;;;0.85;0.85;;;18.90;99.90;;;;;;4951526;28;20046;-74
2023/07/15 04:39:56;;;;;;;0.68;0.68;;;19.00;99.90;;;;;;4970757;28;20472;-74
2023/07/15 04:42:22;;;;;;;0.60;0.60;;;19.10;99.90;;;;;;4969302;28;20043;-74
2023/07/15 04:44:48;;;;;;;0.70;0.70;;;19.10;99.90;;;;;;4966670;28;20098;-74
2023/07/15 04:47:14;;;;;;;0.70;0.70;;;19.10;99.90;;;;;;4952016;28;20062;-74
2023/07/15 04:49:39;;;;;;;0.60;0.60;;;19.10;99.90;;;;;;4966268;28;20121;-74
2023/07/15 04:52:05;;;;;;;0.57;0.57;;;19.20;99.90;;;;;;4953936;28;20055;-74
2023/07/15 04:54:31;;;;;;;0.65;0.65;;;19.30;99.90;;;;;;4969762;28;20137;-74
2023/07/15 04:56:57;;;;;;;0.50;0.50;;;19.30;99.90;;;;;;4953862;28;20043;-74
2023/07/15 04:59:22;;;;;;;1.00;1.00;;;19.30;99.90;;;;;;4970583;28;20424;-74
2023/07/15 05:01:48;;;;;;;0.95;0.95;;;19.40;99.90;;;;;;4966364;28;20091;-74
2023/07/15 05:04:14;;;;;;;0.68;0.68;;;19.40;99.90;;;;;;4972706;28;20098;-74
2023/07/15 05:06:40;;;;;;;0.70;0.70;;;19.40;99.90;;;;;;4966103;28;20189;-74
2023/07/15 05:09:06;;;;;;;0.77;0.77;;;19.40;99.90;;;;;;4966837;28;20055;-74
2023/07/15 05:11:31;;;;;;;0.63;0.63;;;19.40;99.90;;;;;;4950058;28;20054;-74
2023/07/15 05:13:57;;;;;;;0.60;0.60;;;19.50;99.90;;;;;;4970739;28;20166;-74
2023/07/15 05:16:23;;;;;;;0.50;0.50;;;19.60;99.90;;;;;;4968625;28;20090;-74
2023/07/15 05:18:48;;;;;;;1.10;0.77;;;19.60;99.90;;;;;;4949127;28;20047;-74
2023/07/15 05:21:16;;;;;;;0.40;0.40;;;19.60;99.90;;;;;;4970946;28;20567;-74
2023/07/15 05:23:42;;;;;;;0.65;0.63;;;19.70;99.90;;;;;;4956958;28;20058;-74
2023/07/15 05:26:08;;;;;;;0.93;0.93;;;19.70;99.90;;;;;;4967954;28;20432;-74
2023/07/15 05:28:35;;;;;;;0.40;0.40;;;19.70;99.90;;;;;;4973224;28;20145;-74
2023/07/15 05:31:01;;;;;;;0.50;0.50;;;19.80;99.90;;;;;;4964753;28;20059;-74
2023/07/15 05:33:30;;;;;;;0.60;0.60;;;19.70;99.90;;;;;;4970758;28;20046;-74
2023/07/15 05:35:56;;;;;;;0.73;0.70;;;19.80;99.90;;;;;;4962902;28;20050;-73
2023/07/15 05:38:26;;;;;;;0.30;0.30;;;19.90;99.90;;;;;;4962772;28;20050;-74
2023/07/15 05:40:53;;;;;;;0.68;0.68;;;19.80;99.90;;;;;;4970983;28;20073;-75
2023/07/15 05:43:19;;;;;;;1.45;1.35;;;19.80;99.90;;;;;;4953083;28;20061;-74
2023/07/15 05:45:45;;;;;;;1.58;0.85;;;20.10;99.90;;;;;;4949919;28;20456;-74
2023/07/15 05:48:11;;;;;;;0.75;0.75;;;19.90;99.90;;;;;;4964812;28;20106;-75
2023/07/15 05:50:37;;;;;;;0.70;0.70;;;20.00;99.90;;;;;;4953066;28;20046;-75
2023/07/15 05:53:04;;;;;;;0.50;0.50;;;20.10;99.90;;;;;;4946938;28;20400;-75
2023/07/15 05:55:32;;;;;;;0.60;0.60;;;20.30;99.90;;;;;;4947765;28;20039;-75
2023/07/15 05:57:57;;;;;;;;;;;20.30;99.90;;;;;;4953295;28;20050;-75
2023/07/15 06:00:23;;;;;;;0.70;0.70;;;20.40;99.90;;;;;;4947385;28;19973;-74
2023/07/15 06:02:49;;;;;;;1.70;1.60;;;20.50;99.90;;;;;;4951729;28;20046;-75
2023/07/15 06:05:14;;;;;;;0.93;0.93;;;20.50;99.90;;;;;;4954040;28;20061;-74
2023/07/15 06:07:40;;;;;;;0.68;0.68;;;20.50;99.90;;;;;;4968860;28;20042;-75
2023/07/15 06:10:06;;;;;;;0.90;0.90;;;20.60;99.90;;;;;;4968648;28;20086;-74
2023/07/15 06:12:32;;;;;;;1.08;1.08;;;20.60;99.90;;;;;;4949643;28;20181;-74
2023/07/15 06:14:57;;;;;;;0.90;0.90;;;20.70;99.90;;;;;;4968570;28;20047;-74
2023/07/15 06:17:23;;;;;;;1.08;1.08;;;20.80;99.90;;;;;;4949799;28;20432;-75
2023/07/15 06:19:48;;;;;;;0.80;0.80;;;20.90;99.90;;;;;;4947331;28;20510;-75
2023/07/15 06:22:14;;;;;;;0.95;0.95;;;21.10;99.90;;;;;;4967170;28;20109;-75
2023/07/15 06:24:40;;;;;;;0.50;0.50;;;21.20;99.90;;;;;;4950817;28;20050;-75
2023/07/15 06:27:06;;;;;;;0.75;0.75;;;21.20;99.90;;;;;;4969945;28;20100;-74
2023/07/15 06:29:31;;;;;;;0.90;0.90;;;21.10;99.90;;;;;;4951684;28;20452;-74
2023/07/15 06:31:57;;;;;;;0.50;0.50;;;21.30;99.90;;;;;;4969182;28;20051;-75
2023/07/15 06:34:23;;;;;;;0.40;0.40;;;21.30;99.90;;;;;;4948182;28;20518;-74
2023/07/15 06:36:49;;;;;;;0.50;0.50;;;21.40;99.90;;;;;;4927881;28;20052;-74
2023/07/15 06:39:15;;;;;;;0.50;0.50;;;21.60;99.90;;;;;;4943758;28;20085;-75
2023/07/15 06:41:40;;;;;;;1.83;1.67;;;21.60;99.90;;;;;;4944512;28;20050;-74
2023/07/15 06:44:06;;;;;;;1.23;1.00;;;21.70;99.90;;;;;;4944530;28;20069;-75
2023/07/15 06:46:33;;;;;;;0.43;0.43;;;22.00;99.90;;;;;;4960191;28;20096;-75
2023/07/15 06:48:59;;;;;;;0.52;0.52;;;22.10;99.90;;;;;;4961463;28;20042;-75
2023/07/15 06:51:24;;;;;;;0.68;0.68;;;22.30;99.90;;;;;;4944259;28;20054;-75
2023/07/15 06:53:50;;;;;;;0.35;0.35;;;22.50;99.90;;;;;;4940630;28;20138;-75
2023/07/15 06:56:15;;;;;;;1.15;1.05;;;22.70;99.90;;;;;;4942939;28;20058;-75
2023/07/15 06:58:41;;;;;;;1.15;1.08;;;22.80;99.90;;;;;;4942499;28;20058;-74
2023/07/15 07:01:07;;;;;;;0.68;0.68;;;23.10;99.90;;;;;;4942895;28;20046;-74
2023/07/15 07:03:33;;;;;;;1.65;1.27;;;23.40;99.90;;;;;;4959532;28;20058;-75
2023/07/15 07:05:58;;;;;;;0.73;0.73;;;23.50;99.90;;;;;;4963235;28;20667;-75
2023/07/15 07:08:24;;;;;;;0.38;0.38;;;23.70;99.90;;;;;;4964199;28;20082;-75
2023/07/15 07:10:51;;;;;;;0.70;0.70;;;24.00;99.90;;;;;;4964995;28;20046;-75
2023/07/15 07:13:17;;;;;;;0.97;0.93;;;24.10;99.90;;;;;;4964114;28;20039;-76
2023/07/15 07:15:43;;;;;;;0.40;0.40;;;24.30;99.90;;;;;;4964925;28;20286;-74
2023/07/15 07:18:08;;;;;;;0.82;0.82;;;24.60;99.90;;;;;;4965749;28;20047;-74
2023/07/15 07:20:34;;;;;;;1.45;1.35;;;24.70;99.90;;;;;;4965493;28;20492;-75
2023/07/15 07:23:00;;;;;;;0.63;0.63;;;24.80;99.90;;;;;;4963429;28;20165;-75
2023/07/15 07:25:25;;;;;;;0.55;0.55;;;25.10;99.90;;;;;;4961925;28;20050;-73
2023/07/15 07:27:51;;;;;;;0.55;0.55;;;25.20;99.90;;;;;;4964295;28;20102;-72
2023/07/15 07:30:17;;;;;;;0.35;0.35;;;25.30;99.90;;;;;;4964498;28;20793;-72
2023/07/15 07:32:42;;;;;;;0.40;0.40;;;25.70;99.90;;;;;;4965067;28;20045;-73
2023/07/15 07:35:09;;;;;;;0.60;0.60;;;25.70;99.90;;;;;;4965163;28;20504;-73
2023/07/15 07:37:34;;;;;;;1.20;1.02;;;26.10;99.90;;;;;;4963078;28;20043;-72
2023/07/15 07:40:01;;;;;;;0.70;0.70;;;26.00;99.90;;;;;;4947938;28;20061;-72
2023/07/15 07:42:27;;;;;;;1.37;1.20;;;26.20;99.90;;;;;;4964389;28;20050;-72
2023/07/15 07:44:54;;;;;;;0.52;0.52;;;26.40;99.90;;;;;;4965751;28;20039;-72
2023/07/15 07:47:20;;;;;;;0.68;0.50;;;26.60;99.90;;;;;;4964505;28;20038;-72
2023/07/15 07:49:45;;;;;;;0.43;0.43;;;26.70;99.90;;;;;;4965617;28;20722;-72
2023/07/15 07:52:11;;;;;;;1.13;0.80;;;26.60;99.90;;;;;;4964891;28;20162;-73
2023/07/15 07:54:37;;;;;;;0.75;0.75;;;26.70;99.90;;;;;;4947361;28;20047;-73
2023/07/15 07:57:03;;;;;;;0.40;0.40;;;26.90;99.90;;;;;;4964682;28;20126;-73
2023/07/15 07:59:28;;;;;;;0.60;0.60;;;27.20;99.90;;;;;;4964063;28;20054;-74
2023/07/15 08:01:54;;;;;;;0.52;0.52;;;27.20;99.90;;;;;;4963218;28;20038;-74
2023/07/15 08:04:20;;;;;;;0.75;0.55;;;27.60;99.90;;;;;;4965000;28;20047;-73
2023/07/15 08:06:45;;;;;;;1.00;1.00;;;27.70;99.90;;;;;;4965148;28;20594;-73
2023/07/15 08:09:11;;;;;;;0.95;0.95;;;27.70;99.90;;;;;;4965179;28;20070;-73
2023/07/15 08:11:38;;;;;;;0.70;0.70;;;28.00;99.90;;;;;;4964307;28;20138;-73
2023/07/15 08:14:03;;;;;;;0.77;0.77;;;27.80;99.90;;;;;;4963774;28;20047;-73
2023/07/15 08:16:32;;;;;;;0.70;0.70;;;27.90;99.90;;;;;;4962235;28;20436;-73
2023/07/15 08:18:58;;;;;;;0.85;0.85;;;27.70;99.90;;;;;;4962958;28;20401;-72
2023/07/15 08:21:26;;;;;;;0.60;0.60;;;27.90;99.90;;;;;;4962344;28;20042;-73
2023/07/15 08:23:52;;;;;;;0.50;0.50;;;27.80;99.90;;;;;;4961591;28;20440;-73
2023/07/15 08:26:17;;;;;;;0.40;0.40;;;28.20;99.90;;;;;;4963534;28;20222;-73
2023/07/15 08:28:43;;;;;;;0.38;0.38;;;28.10;99.90;;;;;;4963161;28;20530;-73
2023/07/15 08:31:09;;;;;;;0.60;0.60;;;28.20;99.90;;;;;;4963504;28;20042;-73
2023/07/15 08:33:34;;;;;;;1.08;1.05;;;28.50;99.90;;;;;;4962987;28;20049;-73
2023/07/15 08:36:01;;;;;;;0.40;0.40;;;28.50;99.90;;;;;;4964099;28;20157;-73
2023/07/15 08:38:26;;;;;;;0.65;0.65;;;28.50;99.90;;;;;;4963829;28;20046;-73
2023/07/15 08:40:58;;;;;;;0.77;0.77;;;28.70;99.90;;;;;;4962905;28;20047;-73
2023/07/15 08:43:24;;;;;;;0.50;0.50;;;29.00;99.90;;;;;;4946583;28;20086;-73
2023/07/15 08:45:55;;;;;;;0.55;0.55;;;28.90;99.90;;;;;;4964182;28;20125;-72
2023/07/15 08:48:20;;;;;;;0.68;0.40;;;28.90;99.90;;;;;;4946690;28;20073;-72
2023/07/15 08:50:49;;;;;;;1.10;1.00;;;29.10;99.90;;;;;;4945424;28;20495;-72
2023/07/15 08:53:15;;;;;;;0.85;0.85;;;29.00;99.90;;;;;;4945499;28;21039;-72
2023/07/15 08:55:41;;;;;;;0.45;0.45;;;29.10;99.90;;;;;;4944457;28;20585;-72
2023/07/15 08:58:07;;;;;;;0.70;0.70;;;29.20;99.90;;;;;;4970479;28;20042;-72
2023/07/15 09:00:33;;;;;;;0.50;0.50;;;29.40;99.90;;;;;;4952979;28;20054;-72
2023/07/15 09:02:59;;;;;;;0.43;0.43;;;29.40;99.90;;;;;;4952556;28;20121;-72
2023/07/15 09:05:24;;;;;;;1.05;0.88;;;29.60;99.90;;;;;;4949484;28;20115;-72
2023/07/15 09:07:53;;;;;;;0.40;0.40;;;29.70;99.90;;;;;;4948749;28;20050;-73
2023/07/15 09:10:19;;;;;;;0.73;0.68;;;30.00;99.90;;;;;;4952775;28;20074;-73
2023/07/15 09:12:53;;;;;;;0.77;0.77;;;30.00;99.90;;;;;;4928838;28;20090;-73
2023/07/15 09:15:19;;;;;;;0.63;0.63;;;30.00;99.90;;;;;;4952089;28;21491;-73
2023/07/15 09:17:55;;;;;;;0.60;0.60;;;30.00;99.90;;;;;;4948721;28;20048;-73
2023/07/15 09:20:23;;;;;;;0.68;0.57;;;30.10;99.90;;;;;;4964967;28;20515;-73
2023/07/15 09:22:59;;;;;;;0.70;0.70;;;30.20;99.90;;;;;;4932484;28;20051;-73
2023/07/15 09:25:25;;;;;;;0.50;0.50;;;29.90;99.90;;;;;;4967186;28;20419;-73
2023/07/15 09:27:52;;;;;;;1.15;1.13;;;29.90;99.90;;;;;;4968983;28;20082;-73
2023/07/15 09:30:19;;;;;;;0.90;0.90;;;30.10;99.90;;;;;;4972479;28;20085;-73
2023/07/15 09:32:45;;;;;;;0.43;0.43;;;30.10;99.90;;;;;;4968475;28;20039;-73
2023/07/15 09:35:10;;;;;;;0.60;0.60;;;30.00;99.90;;;;;;4969144;28;20045;-73
2023/07/15 09:37:37;;;;;;;0.65;0.65;;;30.10;99.90;;;;;;4968194;28;20053;-73
2023/07/15 09:40:08;;;;;;;0.63;0.63;;;30.20;99.90;;;;;;4968923;28;20042;-72
2023/07/15 09:43:00;;;;;;;0.75;0.75;;;30.40;99.90;;;;;;4969380;28;20110;-72
2023/07/15 09:45:40;;;;;;;0.70;0.70;;;30.20;99.90;;;;;;4960952;28;20050;-72
2023/07/15 09:48:13;;;;;;;0.80;0.80;;;30.00;99.90;;;;;;4968778;28;20065;-72
2023/07/15 09:50:40;;;;;;;0.80;0.80;;;30.00;99.90;;;;;;4969435;28;20530;-73
2023/07/15 09:53:09;;;;;;;0.77;0.77;;;30.00;99.90;;;;;;4969112;28;20047;-73
2023/07/15 09:55:36;;;;;;;0.75;0.75;;;30.20;99.90;;;;;;4972390;28;20081;-73
2023/07/15 09:58:13;;;;;;;1.05;1.05;;;29.90;99.90;;;;;;4969009;28;20448;-72
2023/07/15 10:00:44;;;;;;;0.75;0.75;;;29.80;99.90;;;;;;4958301;28;20443;-72
2023/07/15 10:03:37;;;;;;;0.60;0.60;;;29.80;99.90;;;;;;4952930;28;20739;-72
2023/07/15 10:06:04;;;;;;;1.05;1.05;;;29.70;99.90;;;;;;4961947;28;20054;-72
2023/07/15 10:08:30;;;;;;;0.95;0.95;;;29.70;99.90;;;;;;4961847;28;20057;-73
2023/07/15 10:10:56;;;;;;;1.23;1.15;;;29.80;99.90;;;;;;4965232;28;20127;-72
2023/07/15 10:13:22;;;;;;;0.50;0.50;;;29.60;99.90;;;;;;4972386;28;20480;-72
2023/07/15 10:15:48;;;;;;;0.82;0.82;;;29.40;99.90;;;;;;4946553;28;20651;-72
2023/07/15 10:18:16;;;;;;;0.95;0.77;;;29.50;99.90;;;;;;4964801;28;20230;-72
2023/07/15 10:20:53;;;;;;;1.13;1.13;;;29.30;99.90;;;;;;4947621;28;20097;-73
2023/07/15 10:23:28;;;;;;;0.68;0.55;;;29.70;99.90;;;;;;4948222;28;20184;-72
2023/07/15 10:26:04;;;;;;;0.60;0.60;;;30.00;99.90;;;;;;4966104;28;20050;-72
2023/07/15 10:28:38;;;;;;;0.43;0.43;;;30.10;99.90;;;;;;4950595;28;20081;-72
2023/07/15 10:31:14;;;;;;;0.88;0.88;;;30.10;99.90;;;;;;4958545;28;20134;-72
2023/07/15 10:33:57;;;;;;;0.70;0.70;;;29.90;99.90;;;;;;4966116;28;20049;-72
2023/07/15 10:36:47;;;;;;;1.70;1.60;;;29.60;99.90;;;;;;4967583;28;20408;-72
2023/07/15 10:39:14;;;;;;;0.70;0.70;;;29.60;99.90;;;;;;4961014;28;20046;-72
2023/07/15 10:41:41;;;;;;;;;;;29.40;99.90;;;;;;4958935;28;20050;-73
2023/07/15 10:44:16;;;;;;;;;;;29.40;99.90;;;;;;4976869;28;19953;-72
2023/07/15 10:46:45;;;;;;;0.52;0.52;;;29.50;99.90;;;;;;4951516;28;19969;-72
2023/07/15 10:49:10;;;;;;;0.40;0.40;;;29.30;99.90;;;;;;4955942;28;20051;-72
2023/07/15 10:51:36;;;;;;;0.55;0.50;;;29.20;99.90;;;;;;4975645;28;20038;-72
2023/07/15 10:54:02;;;;;;;0.95;0.95;;;29.20;99.90;;;;;;4973712;28;20527;-72
2023/07/15 10:56:28;;;;;;;0.45;0.45;;;29.10;99.90;;;;;;4980657;28;20043;-72
2023/07/15 10:58:57;;;;;;;0.68;0.68;;;29.30;99.90;;;;;;4976009;28;20057;-72
2023/07/15 11:01:24;;;;;;;0.77;0.77;;;29.30;99.90;;;;;;4958419;28;20050;-72
2023/07/15 11:03:50;;;;;;;0.60;0.60;;;29.20;99.90;;;;;;4959395;28;20563;-72
2023/07/15 11:06:16;;;;;;;0.32;0.32;;;29.30;99.90;;;;;;4967831;28;20043;-73
2023/07/15 11:08:44;;;;;;;0.63;0.63;;;29.60;99.90;;;;;;4975354;28;20053;-73
2023/07/15 11:11:10;;;;;;;;;;;29.40;99.90;;;;;;4951847;28;20508;-72
2023/07/15 11:13:37;;;;;;;0.45;0.45;;;29.40;99.90;;;;;;4968341;28;19922;-72
2023/07/15 11:16:03;;;;;;;0.70;0.70;;;29.50;99.90;;;;;;4970981;28;20090;-72
2023/07/15 11:18:29;;;;;;;0.73;0.73;;;29.40;99.90;;;;;;4975293;28;20454;-73
2023/07/15 11:20:57;;;;;;;0.40;0.40;;;29.20;99.90;;;;;;4975152;28;20042;-72
2023/07/15 11:23:23;;;;;;;1.60;1.50;;;29.00;99.90;;;;;;4952656;28;20130;-72
2023/07/15 11:25:49;;;;;;;1.42;0.80;;;28.90;99.90;;;;;;4968478;28;20085;-73
2023/07/15 11:28:17;;;;;;;0.57;0.57;;;28.70;99.90;;;;;;4972250;28;20054;-72
2023/07/15 11:30:45;;;;;;;0.52;0.52;;;28.80;99.90;;;;;;4956187;28;20059;-72
2023/07/15 11:33:11;;;;;;;1.75;1.30;;;28.70;99.90;;;;;;4974010;28;20492;-72
2023/07/15 11:35:39;;;;;;;0.47;0.47;;;28.60;99.90;;;;;;4973332;28;20121;-72
2023/07/15 11:38:10;;;;;;;;;;;28.70;99.90;;;;;;4974698;28;20105;-72
2023/07/15 11:40:58;;;;;;;0.50;0.50;;;28.70;99.90;;;;;;4966451;28;19926;-72
2023/07/15 11:43:28;;;;;;;1.00;0.80;;;28.50;99.90;;;;;;4972634;28;20053;-73
2023/07/15 11:45:55;;;;;;;0.80;0.80;;;28.20;99.90;;;;;;4965131;28;20162;-72
2023/07/15 11:48:22;;;;;;;;;;;28.10;99.90;;;;;;4971941;28;20432;-72
2023/07/15 11:50:48;;;;;;;0.40;0.40;;;28.00;99.90;;;;;;4970574;28;19925;-72
2023/07/15 11:53:30;;;;;;;0.73;0.73;;;27.70;99.90;;;;;;4965963;28;20047;-72
2023/07/15 11:55:57;;;;;;;1.13;1.02;;;27.70;99.90;;;;;;4967252;28;20061;-72
2023/07/15 11:58:40;;;;;;;0.70;0.70;;;27.60;99.90;;;;;;4960759;28;20047;-72
2023/07/15 12:01:17;;;;;;;1.75;0.65;;;27.50;99.90;;;;;;4957265;28;20055;-73
2023/07/15 12:03:46;;;;;;;1.25;1.17;;;27.30;99.90;;;;;;4969188;28;20097;-73
2023/07/15 12:06:26;;;;;;;0.40;0.40;;;27.30;99.90;;;;;;4967272;28;20070;-73
2023/07/15 12:09:10;;;;;;;0.70;0.70;;;27.10;99.90;;;;;;4967911;28;20137;-73
2023/07/15 12:11:37;;;;;;;0.95;0.95;;;27.10;99.90;;;;;;4953154;28;20057;-73
2023/07/15 12:14:05;;;;;;;1.80;1.70;;;27.10;99.90;;;;;;4968484;28;20050;-74
2023/07/15 12:16:32;;;;;;;0.50;0.50;;;27.00;99.90;;;;;;4971266;28;20057;-73
2023/07/15 12:18:59;;;;;;;1.27;0.52;;;26.80;99.90;;;;;;4971440;28;20053;-74
2023/07/15 12:21:25;;;;;;;1.00;0.95;;;26.80;99.90;;;;;;4971184;28;20046;-73
2023/07/15 12:23:51;;;;;;;0.65;0.65;;;26.80;99.90;;;;;;4965668;28;20054;-73
2023/07/15 12:26:19;;;;;;;2.10;1.02;;;26.80;99.90;;;;;;4967853;28;20625;-72
2023/07/15 12:28:45;;;;;;;0.93;0.93;;;26.90;99.90;;;;;;4970983;28;20105;-73
2023/07/15 12:31:11;;;;;;;0.85;0.85;;;26.90;99.90;;;;;;4968665;28;20404;-73
2023/07/15 12:33:37;;;;;;;0.63;0.63;;;27.10;99.90;;;;;;4962559;28;20488;-73
2023/07/15 12:36:03;;;;;;;0.43;0.43;;;27.20;99.90;;;;;;4960592;28;20047;-72
2023/07/15 12:38:29;;;;;;;0.40;0.40;;;27.50;99.90;;;;;;4971775;28;20038;-73
2023/07/15 12:40:56;;;;;;;0.40;0.40;;;27.70;99.90;;;;;;4966295;28;20042;-73
2023/07/15 12:43:23;;;;;;;0.43;0.43;;;27.70;99.90;;;;;;4970445;28;20050;-72
2023/07/15 12:45:52;;;;;;;;;;;27.70;99.90;;;;;;4967181;28;20054;-73
2023/07/15 12:48:18;;;;;;;0.95;0.85;;;27.60;99.90;;;;;;4965576;28;19926;-72